sensor_id;sensor_type;location;lat;lon;timestamp;temperature;humidity
76040;SHT30;64736;50.462;4.850;2024-02-26T00:01:39;6.42;93.67
76040;SHT30;64736;50.462;4.850;2024-02-26T00:04:05;6.47;93.69
76040;SHT30;64736;50.462;4.850;2024-02-26T00:06:31;6.47;93.22
76040;SHT30;64736;50.462;4.850;2024-02-26T00:08:57;6.45;93.74
76040;SHT30;64736;50.462;4.850;2024-02-26T00:11:23;6.45;93.58
76040;SHT30;64736;50.462;4.850;2024-02-26T00:13:49;6.48;93.34
76040;SHT30;64736;50.462;4.850;2024-02-26T00:16:15;6.45;93.97
76040;SHT30;64736;50.462;4.850;2024-02-26T00:18:40;6.45;93.78
76040;SHT30;64736;50.462;4.850;2024-02-26T00:21:06;6.41;94.14
76040;SHT30;64736;50.462;4.850;2024-02-26T00:23:32;6.40;94.20
76040;SHT30;64736;50.462;4.850;2024-02-26T00:25:58;6.38;94.29
76040;SHT30;64736;50.462;4.850;2024-02-26T00:28:23;6.37;94.43
76040;SHT30;64736;50.462;4.850;2024-02-26T00:30:50;6.34;94.50
76040;SHT30;64736;50.462;4.850;2024-02-26T00:33:22;6.37;94.42
76040;SHT30;64736;50.462;4.850;2024-02-26T00:35:48;6.30;96.00
76040;SHT30;64736;50.462;4.850;2024-02-26T00:38:14;6.37;94.23
76040;SHT30;64736;50.462;4.850;2024-02-26T00:40:40;6.36;94.69
76040;SHT30;64736;50.462;4.850;2024-02-26T00:43:07;6.33;94.55
76040;SHT30;64736;50.462;4.850;2024-02-26T00:45:32;6.30;94.90
76040;SHT30;64736;50.462;4.850;2024-02-26T00:47:59;6.34;94.44
76040;SHT30;64736;50.462;4.850;2024-02-26T00:50:30;6.27;94.55
76040;SHT30;64736;50.462;4.850;2024-02-26T00:52:56;6.28;94.73
76040;SHT30;64736;50.462;4.850;2024-02-26T00:55:22;6.28;94.78
76040;SHT30;64736;50.462;4.850;2024-02-26T00:57:47;6.26;95.06
76040;SHT30;64736;50.462;4.850;2024-02-26T01:00:14;6.19;95.06
76040;SHT30;64736;50.462;4.850;2024-02-26T01:02:39;6.23;95.10
76040;SHT30;64736;50.462;4.850;2024-02-26T01:05:08;6.21;95.00
76040;SHT30;64736;50.462;4.850;2024-02-26T01:07:36;6.14;95.58
76040;SHT30;64736;50.462;4.850;2024-02-26T01:10:02;6.11;96.91
76040;SHT30;64736;50.462;4.850;2024-02-26T01:12:29;6.14;97.15
76040;SHT30;64736;50.462;4.850;2024-02-26T01:14:55;6.09;97.27
76040;SHT30;64736;50.462;4.850;2024-02-26T01:17:21;6.06;97.35
76040;SHT30;64736;50.462;4.850;2024-02-26T01:19:47;6.07;97.42
76040;SHT30;64736;50.462;4.850;2024-02-26T01:22:12;6.09;97.45
76040;SHT30;64736;50.462;4.850;2024-02-26T01:24:38;6.06;97.51
76040;SHT30;64736;50.462;4.850;2024-02-26T01:27:04;6.02;97.54
76040;SHT30;64736;50.462;4.850;2024-02-26T01:29:29;6.09;97.58
76040;SHT30;64736;50.462;4.850;2024-02-26T01:31:56;6.09;97.58
76040;SHT30;64736;50.462;4.850;2024-02-26T01:34:21;6.10;97.65
76040;SHT30;64736;50.462;4.850;2024-02-26T01:36:47;6.13;97.67
76040;SHT30;64736;50.462;4.850;2024-02-26T01:39:13;6.13;97.68
76040;SHT30;64736;50.462;4.850;2024-02-26T01:41:40;6.17;97.70
76040;SHT30;64736;50.462;4.850;2024-02-26T01:44:06;6.17;97.70
76040;SHT30;64736;50.462;4.850;2024-02-26T01:46:34;6.16;97.69
76040;SHT30;64736;50.462;4.850;2024-02-26T01:49:01;6.21;92.60
76040;SHT30;64736;50.462;4.850;2024-02-26T01:51:27;6.21;92.86
76040;SHT30;64736;50.462;4.850;2024-02-26T01:53:54;6.21;92.54
76040;SHT30;64736;50.462;4.850;2024-02-26T01:56:21;6.21;92.73
76040;SHT30;64736;50.462;4.850;2024-02-26T01:58:47;6.26;93.05
76040;SHT30;64736;50.462;4.850;2024-02-26T02:01:15;6.24;93.39
76040;SHT30;64736;50.462;4.850;2024-02-26T02:03:42;6.24;93.56
76040;SHT30;64736;50.462;4.850;2024-02-26T02:06:09;6.27;93.60
76040;SHT30;64736;50.462;4.850;2024-02-26T02:08:35;6.27;93.65
76040;SHT30;64736;50.462;4.850;2024-02-26T02:11:01;6.24;94.14
76040;SHT30;64736;50.462;4.850;2024-02-26T02:13:27;6.23;94.01
76040;SHT30;64736;50.462;4.850;2024-02-26T02:15:53;6.26;94.31
76040;SHT30;64736;50.462;4.850;2024-02-26T02:18:19;6.24;94.53
76040;SHT30;64736;50.462;4.850;2024-02-26T02:20:44;6.19;94.83
76040;SHT30;64736;50.462;4.850;2024-02-26T02:23:10;6.20;94.92
76040;SHT30;64736;50.462;4.850;2024-02-26T02:25:36;6.16;94.99
76040;SHT30;64736;50.462;4.850;2024-02-26T02:28:02;6.13;95.15
76040;SHT30;64736;50.462;4.850;2024-02-26T02:30:30;6.09;96.10
76040;SHT30;64736;50.462;4.850;2024-02-26T02:32:57;6.06;96.12
76040;SHT30;64736;50.462;4.850;2024-02-26T02:35:24;6.03;96.36
76040;SHT30;64736;50.462;4.850;2024-02-26T02:37:52;5.98;96.31
76040;SHT30;64736;50.462;4.850;2024-02-26T02:40:18;5.95;96.49
76040;SHT30;64736;50.462;4.850;2024-02-26T02:42:44;5.99;96.65
76040;SHT30;64736;50.462;4.850;2024-02-26T02:45:10;5.93;96.59
76040;SHT30;64736;50.462;4.850;2024-02-26T02:47:36;5.90;96.73
76040;SHT30;64736;50.462;4.850;2024-02-26T02:50:03;5.89;96.43
76040;SHT30;64736;50.462;4.850;2024-02-26T02:52:29;5.93;96.04
76040;SHT30;64736;50.462;4.850;2024-02-26T02:54:55;5.93;96.43
76040;SHT30;64736;50.462;4.850;2024-02-26T02:57:21;5.96;96.44
76040;SHT30;64736;50.462;4.850;2024-02-26T02:59:47;5.99;96.35
76040;SHT30;64736;50.462;4.850;2024-02-26T03:02:12;5.99;96.50
76040;SHT30;64736;50.462;4.850;2024-02-26T03:04:38;5.93;97.81
76040;SHT30;64736;50.462;4.850;2024-02-26T03:07:04;5.96;97.62
76040;SHT30;64736;50.462;4.850;2024-02-26T03:09:30;5.95;96.68
76040;SHT30;64736;50.462;4.850;2024-02-26T03:11:55;5.92;96.63
76040;SHT30;64736;50.462;4.850;2024-02-26T03:14:21;5.89;96.80
76040;SHT30;64736;50.462;4.850;2024-02-26T03:16:47;5.93;96.77
76040;SHT30;64736;50.462;4.850;2024-02-26T03:19:16;5.93;96.48
76040;SHT30;64736;50.462;4.850;2024-02-26T03:21:42;5.96;96.38
76040;SHT30;64736;50.462;4.850;2024-02-26T03:24:07;5.95;96.58
76040;SHT30;64736;50.462;4.850;2024-02-26T03:26:38;5.96;96.74
76040;SHT30;64736;50.462;4.850;2024-02-26T03:29:04;5.90;96.88
76040;SHT30;64736;50.462;4.850;2024-02-26T03:31:30;5.93;96.84
76040;SHT30;64736;50.462;4.850;2024-02-26T03:33:56;5.95;96.98
76040;SHT30;64736;50.462;4.850;2024-02-26T03:36:21;5.90;97.17
76040;SHT30;64736;50.462;4.850;2024-02-26T03:38:48;5.92;97.12
76040;SHT30;64736;50.462;4.850;2024-02-26T03:41:14;5.90;97.00
76040;SHT30;64736;50.462;4.850;2024-02-26T03:43:40;5.92;97.27
76040;SHT30;64736;50.462;4.850;2024-02-26T03:46:09;5.90;98.12
76040;SHT30;64736;50.462;4.850;2024-02-26T03:48:36;5.92;97.63
76040;SHT30;64736;50.462;4.850;2024-02-26T03:51:02;5.86;97.46
76040;SHT30;64736;50.462;4.850;2024-02-26T03:53:28;5.82;96.82
76040;SHT30;64736;50.462;4.850;2024-02-26T03:55:54;5.89;97.07
76040;SHT30;64736;50.462;4.850;2024-02-26T03:58:21;5.88;97.05
76040;SHT30;64736;50.462;4.850;2024-02-26T04:00:47;5.89;97.16
76040;SHT30;64736;50.462;4.850;2024-02-26T04:03:16;5.83;96.76
76040;SHT30;64736;50.462;4.850;2024-02-26T04:05:41;5.88;97.17
76040;SHT30;64736;50.462;4.850;2024-02-26T04:08:08;5.86;97.17
76040;SHT30;64736;50.462;4.850;2024-02-26T04:10:36;5.89;97.10
76040;SHT30;64736;50.462;4.850;2024-02-26T04:13:05;5.88;97.56
76040;SHT30;64736;50.462;4.850;2024-02-26T04:15:31;5.88;97.04
76040;SHT30;64736;50.462;4.850;2024-02-26T04:17:57;5.89;97.11
76040;SHT30;64736;50.462;4.850;2024-02-26T04:20:23;5.88;97.09
76040;SHT30;64736;50.462;4.850;2024-02-26T04:22:49;5.88;97.28
76040;SHT30;64736;50.462;4.850;2024-02-26T04:25:14;5.88;96.98
76040;SHT30;64736;50.462;4.850;2024-02-26T04:27:40;5.89;97.15
76040;SHT30;64736;50.462;4.850;2024-02-26T04:30:07;5.88;97.04
76040;SHT30;64736;50.462;4.850;2024-02-26T04:32:33;5.90;97.00
76040;SHT30;64736;50.462;4.850;2024-02-26T04:35:00;5.90;97.11
76040;SHT30;64736;50.462;4.850;2024-02-26T04:37:26;5.86;96.92
76040;SHT30;64736;50.462;4.850;2024-02-26T04:40:00;5.89;97.26
76040;SHT30;64736;50.462;4.850;2024-02-26T04:42:27;5.82;97.20
76040;SHT30;64736;50.462;4.850;2024-02-26T04:44:54;5.85;97.59
76040;SHT30;64736;50.462;4.850;2024-02-26T04:47:20;5.82;97.74
76040;SHT30;64736;50.462;4.850;2024-02-26T04:49:52;5.78;97.70
76040;SHT30;64736;50.462;4.850;2024-02-26T04:52:18;5.76;97.77
76040;SHT30;64736;50.462;4.850;2024-02-26T04:54:44;5.75;97.47
76040;SHT30;64736;50.462;4.850;2024-02-26T04:57:10;5.76;97.79
76040;SHT30;64736;50.462;4.850;2024-02-26T04:59:35;5.76;97.27
76040;SHT30;64736;50.462;4.850;2024-02-26T05:02:01;5.80;97.42
76040;SHT30;64736;50.462;4.850;2024-02-26T05:04:27;5.79;97.65
76040;SHT30;64736;50.462;4.850;2024-02-26T05:06:52;5.80;97.51
76040;SHT30;64736;50.462;4.850;2024-02-26T05:09:18;5.76;97.69
76040;SHT30;64736;50.462;4.850;2024-02-26T05:11:44;5.80;97.74
76040;SHT30;64736;50.462;4.850;2024-02-26T05:14:10;5.79;97.65
76040;SHT30;64736;50.462;4.850;2024-02-26T05:16:36;5.78;97.73
76040;SHT30;64736;50.462;4.850;2024-02-26T05:19:01;5.73;97.25
76040;SHT30;64736;50.462;4.850;2024-02-26T05:21:28;5.76;97.41
76040;SHT30;64736;50.462;4.850;2024-02-26T05:23:53;5.76;97.38
76040;SHT30;64736;50.462;4.850;2024-02-26T05:26:22;5.76;97.46
76040;SHT30;64736;50.462;4.850;2024-02-26T05:28:49;5.75;97.63
76040;SHT30;64736;50.462;4.850;2024-02-26T05:31:15;5.76;97.36
76040;SHT30;64736;50.462;4.850;2024-02-26T05:33:41;5.78;97.51
76040;SHT30;64736;50.462;4.850;2024-02-26T05:36:07;5.72;97.54
76040;SHT30;64736;50.462;4.850;2024-02-26T05:38:33;5.72;97.53
76040;SHT30;64736;50.462;4.850;2024-02-26T05:40:59;5.76;97.57
76040;SHT30;64736;50.462;4.850;2024-02-26T05:43:27;5.78;97.49
76040;SHT30;64736;50.462;4.850;2024-02-26T05:45:53;5.73;97.48
76040;SHT30;64736;50.462;4.850;2024-02-26T05:48:20;5.76;97.46
76040;SHT30;64736;50.462;4.850;2024-02-26T05:50:48;5.76;97.72
76040;SHT30;64736;50.462;4.850;2024-02-26T05:53:14;5.71;97.06
76040;SHT30;64736;50.462;4.850;2024-02-26T05:55:40;5.79;97.46
76040;SHT30;64736;50.462;4.850;2024-02-26T05:58:06;5.76;97.60
76040;SHT30;64736;50.462;4.850;2024-02-26T06:00:31;5.78;97.30
76040;SHT30;64736;50.462;4.850;2024-02-26T06:02:57;5.80;97.40
76040;SHT30;64736;50.462;4.850;2024-02-26T06:05:23;5.76;97.41
76040;SHT30;64736;50.462;4.850;2024-02-26T06:07:49;5.80;97.63
76040;SHT30;64736;50.462;4.850;2024-02-26T06:10:14;5.80;97.67
76040;SHT30;64736;50.462;4.850;2024-02-26T06:12:40;5.76;97.61
76040;SHT30;64736;50.462;4.850;2024-02-26T06:15:06;5.80;97.75
76040;SHT30;64736;50.462;4.850;2024-02-26T06:17:32;5.80;97.95
76040;SHT30;64736;50.462;4.850;2024-02-26T06:19:59;5.79;97.92
76040;SHT30;64736;50.462;4.850;2024-02-26T06:22:26;5.73;98.15
76040;SHT30;64736;50.462;4.850;2024-02-26T06:24:52;5.78;98.32
76040;SHT30;64736;50.462;4.850;2024-02-26T06:27:17;5.80;98.28
76040;SHT30;64736;50.462;4.850;2024-02-26T06:29:43;5.72;98.29
76040;SHT30;64736;50.462;4.850;2024-02-26T06:32:09;5.73;98.42
76040;SHT30;64736;50.462;4.850;2024-02-26T06:34:34;5.78;98.33
76040;SHT30;64736;50.462;4.850;2024-02-26T06:37:00;5.82;98.31
76040;SHT30;64736;50.462;4.850;2024-02-26T06:39:26;5.75;98.50
76040;SHT30;64736;50.462;4.850;2024-02-26T06:41:51;5.72;98.61
76040;SHT30;64736;50.462;4.850;2024-02-26T06:44:23;5.73;98.23
76040;SHT30;64736;50.462;4.850;2024-02-26T06:46:50;5.62;98.51
76040;SHT30;64736;50.462;4.850;2024-02-26T06:49:16;5.56;98.41
76040;SHT30;64736;50.462;4.850;2024-02-26T06:51:41;5.59;98.48
76040;SHT30;64736;50.462;4.850;2024-02-26T06:54:07;5.55;98.65
76040;SHT30;64736;50.462;4.850;2024-02-26T06:56:33;5.59;98.54
76040;SHT30;64736;50.462;4.850;2024-02-26T06:58:58;5.56;98.69
76040;SHT30;64736;50.462;4.850;2024-02-26T07:01:24;5.62;98.65
76040;SHT30;64736;50.462;4.850;2024-02-26T07:03:50;5.56;98.59
76040;SHT30;64736;50.462;4.850;2024-02-26T07:06:16;5.51;98.60
76040;SHT30;64736;50.462;4.850;2024-02-26T07:08:41;5.65;99.11
76040;SHT30;64736;50.462;4.850;2024-02-26T07:11:07;5.58;99.01
76040;SHT30;64736;50.462;4.850;2024-02-26T07:13:34;5.55;98.97
76040;SHT30;64736;50.462;4.850;2024-02-26T07:16:00;5.56;98.80
76040;SHT30;64736;50.462;4.850;2024-02-26T07:18:25;5.52;99.18
76040;SHT30;64736;50.462;4.850;2024-02-26T07:20:51;5.55;98.71
76040;SHT30;64736;50.462;4.850;2024-02-26T07:23:17;5.51;99.46
76040;SHT30;64736;50.462;4.850;2024-02-26T07:25:43;5.52;99.22
76040;SHT30;64736;50.462;4.850;2024-02-26T07:28:10;5.52;98.46
76040;SHT30;64736;50.462;4.850;2024-02-26T07:30:36;5.56;98.45
76040;SHT30;64736;50.462;4.850;2024-02-26T07:33:02;5.52;98.54
76040;SHT30;64736;50.462;4.850;2024-02-26T07:35:27;5.51;98.41
76040;SHT30;64736;50.462;4.850;2024-02-26T07:37:53;5.50;98.43
76040;SHT30;64736;50.462;4.850;2024-02-26T07:40:19;5.52;98.54
76040;SHT30;64736;50.462;4.850;2024-02-26T07:42:45;5.55;98.51
76040;SHT30;64736;50.462;4.850;2024-02-26T07:45:10;5.48;98.59
76040;SHT30;64736;50.462;4.850;2024-02-26T07:47:36;5.48;98.69
76040;SHT30;64736;50.462;4.850;2024-02-26T07:50:08;5.50;98.76
76040;SHT30;64736;50.462;4.850;2024-02-26T07:52:34;5.48;98.53
76040;SHT30;64736;50.462;4.850;2024-02-26T07:55:00;5.54;98.68
76040;SHT30;64736;50.462;4.850;2024-02-26T07:57:26;5.52;99.02
76040;SHT30;64736;50.462;4.850;2024-02-26T07:59:52;5.52;98.66
76040;SHT30;64736;50.462;4.850;2024-02-26T08:02:18;5.50;98.94
76040;SHT30;64736;50.462;4.850;2024-02-26T08:04:44;5.42;98.61
76040;SHT30;64736;50.462;4.850;2024-02-26T08:07:11;5.47;99.02
76040;SHT30;64736;50.462;4.850;2024-02-26T08:09:38;5.54;98.77
76040;SHT30;64736;50.462;4.850;2024-02-26T08:12:04;5.54;98.60
76040;SHT30;64736;50.462;4.850;2024-02-26T08:14:30;5.59;98.99
76040;SHT30;64736;50.462;4.850;2024-02-26T08:16:57;5.68;98.84
76040;SHT30;64736;50.462;4.850;2024-02-26T08:19:23;5.61;99.99
76040;SHT30;64736;50.462;4.850;2024-02-26T08:21:48;5.61;99.99
76040;SHT30;64736;50.462;4.850;2024-02-26T08:24:14;5.66;99.99
76040;SHT30;64736;50.462;4.850;2024-02-26T08:26:39;5.63;99.99
76040;SHT30;64736;50.462;4.850;2024-02-26T08:29:05;5.73;99.99
76040;SHT30;64736;50.462;4.850;2024-02-26T08:31:30;5.75;97.87
76040;SHT30;64736;50.462;4.850;2024-02-26T08:33:56;5.78;97.92
76040;SHT30;64736;50.462;4.850;2024-02-26T08:36:22;5.72;98.11
76040;SHT30;64736;50.462;4.850;2024-02-26T08:38:49;5.76;97.96
76040;SHT30;64736;50.462;4.850;2024-02-26T08:41:14;5.76;97.75
76040;SHT30;64736;50.462;4.850;2024-02-26T08:43:40;5.76;97.81
76040;SHT30;64736;50.462;4.850;2024-02-26T08:46:09;5.79;97.63
76040;SHT30;64736;50.462;4.850;2024-02-26T08:48:35;5.80;97.71
76040;SHT30;64736;50.462;4.850;2024-02-26T08:51:07;5.80;97.59
76040;SHT30;64736;50.462;4.850;2024-02-26T08:53:33;5.82;97.82
76040;SHT30;64736;50.462;4.850;2024-02-26T08:55:58;5.83;97.93
76040;SHT30;64736;50.462;4.850;2024-02-26T08:58:24;5.86;97.97
76040;SHT30;64736;50.462;4.850;2024-02-26T09:00:49;5.89;98.05
76040;SHT30;64736;50.462;4.850;2024-02-26T09:03:15;5.83;98.16
76040;SHT30;64736;50.462;4.850;2024-02-26T09:05:41;5.82;98.07
76040;SHT30;64736;50.462;4.850;2024-02-26T09:08:06;5.76;97.81
76040;SHT30;64736;50.462;4.850;2024-02-26T09:10:32;5.83;98.17
76040;SHT30;64736;50.462;4.850;2024-02-26T09:12:58;5.73;98.00
76040;SHT30;64736;50.462;4.850;2024-02-26T09:15:24;5.78;98.38
76040;SHT30;64736;50.462;4.850;2024-02-26T09:17:49;5.68;98.17
76040;SHT30;64736;50.462;4.850;2024-02-26T09:20:16;5.78;98.32
76040;SHT30;64736;50.462;4.850;2024-02-26T09:22:46;5.73;98.58
76040;SHT30;64736;50.462;4.850;2024-02-26T09:25:13;5.68;98.36
76040;SHT30;64736;50.462;4.850;2024-02-26T09:27:39;5.71;98.42
76040;SHT30;64736;50.462;4.850;2024-02-26T09:30:05;5.76;98.09
76040;SHT30;64736;50.462;4.850;2024-02-26T09:32:30;5.69;97.92
76040;SHT30;64736;50.462;4.850;2024-02-26T09:34:56;5.78;98.21
76040;SHT30;64736;50.462;4.850;2024-02-26T09:37:22;5.71;97.80
76040;SHT30;64736;50.462;4.850;2024-02-26T09:39:47;5.72;98.06
76040;SHT30;64736;50.462;4.850;2024-02-26T09:42:13;5.68;98.37
76040;SHT30;64736;50.462;4.850;2024-02-26T09:44:40;5.75;98.72
76040;SHT30;64736;50.462;4.850;2024-02-26T09:47:11;5.79;98.83
76040;SHT30;64736;50.462;4.850;2024-02-26T09:49:39;5.75;98.66
76040;SHT30;64736;50.462;4.850;2024-02-26T09:52:05;5.69;98.63
76040;SHT30;64736;50.462;4.850;2024-02-26T09:54:32;5.71;98.77
76040;SHT30;64736;50.462;4.850;2024-02-26T09:57:00;5.80;98.98
76040;SHT30;64736;50.462;4.850;2024-02-26T09:59:27;5.82;98.29
76040;SHT30;64736;50.462;4.850;2024-02-26T10:01:53;5.82;98.03
76040;SHT30;64736;50.462;4.850;2024-02-26T10:04:20;5.82;98.24
76040;SHT30;64736;50.462;4.850;2024-02-26T10:06:46;5.83;98.18
76040;SHT30;64736;50.462;4.850;2024-02-26T10:09:12;5.89;98.59
76040;SHT30;64736;50.462;4.850;2024-02-26T10:11:41;5.95;98.52
76040;SHT30;64736;50.462;4.850;2024-02-26T10:14:08;5.90;98.46
76040;SHT30;64736;50.462;4.850;2024-02-26T10:16:34;5.92;98.02
76040;SHT30;64736;50.462;4.850;2024-02-26T10:19:00;5.98;98.13
76040;SHT30;64736;50.462;4.850;2024-02-26T10:21:26;6.06;98.26
76040;SHT30;64736;50.462;4.850;2024-02-26T10:23:52;6.20;98.65
76040;SHT30;64736;50.462;4.850;2024-02-26T10:26:19;6.05;99.14
76040;SHT30;64736;50.462;4.850;2024-02-26T10:28:45;5.99;99.99
76040;SHT30;64736;50.462;4.850;2024-02-26T10:31:13;5.98;99.99
76040;SHT30;64736;50.462;4.850;2024-02-26T10:33:40;6.06;99.99
76040;SHT30;64736;50.462;4.850;2024-02-26T10:36:08;6.19;99.99
76040;SHT30;64736;50.462;4.850;2024-02-26T10:38:35;6.13;99.99
76040;SHT30;64736;50.462;4.850;2024-02-26T10:41:07;6.11;99.69
76040;SHT30;64736;50.462;4.850;2024-02-26T10:43:33;6.14;99.53
76040;SHT30;64736;50.462;4.850;2024-02-26T10:45:59;6.31;97.58
76040;SHT30;64736;50.462;4.850;2024-02-26T10:48:25;6.42;96.99
76040;SHT30;64736;50.462;4.850;2024-02-26T10:50:51;6.41;96.82
76040;SHT30;64736;50.462;4.850;2024-02-26T10:53:17;6.34;96.54
76040;SHT30;64736;50.462;4.850;2024-02-26T10:55:52;6.41;96.76
76040;SHT30;64736;50.462;4.850;2024-02-26T10:58:18;6.51;97.00
76040;SHT30;64736;50.462;4.850;2024-02-26T11:00:46;6.61;97.31
76040;SHT30;64736;50.462;4.850;2024-02-26T11:03:13;6.49;97.01
76040;SHT30;64736;50.462;4.850;2024-02-26T11:05:43;6.55;96.90
76040;SHT30;64736;50.462;4.850;2024-02-26T11:08:11;6.59;98.22
76040;SHT30;64736;50.462;4.850;2024-02-26T11:10:38;6.65;97.24
76040;SHT30;64736;50.462;4.850;2024-02-26T11:13:05;6.51;98.00
76040;SHT30;64736;50.462;4.850;2024-02-26T11:15:32;6.51;98.27
76040;SHT30;64736;50.462;4.850;2024-02-26T11:17:59;6.44;97.10
76040;SHT30;64736;50.462;4.850;2024-02-26T11:20:28;6.55;97.29
76040;SHT30;64736;50.462;4.850;2024-02-26T11:22:55;6.47;97.16
76040;SHT30;64736;50.462;4.850;2024-02-26T11:25:21;6.51;97.10
76040;SHT30;64736;50.462;4.850;2024-02-26T11:27:54;6.54;98.74
76040;SHT30;64736;50.462;4.850;2024-02-26T11:30:24;6.31;99.94
76040;SHT30;64736;50.462;4.850;2024-02-26T11:32:51;6.34;99.99
76040;SHT30;64736;50.462;4.850;2024-02-26T11:35:18;6.21;99.99
76040;SHT30;64736;50.462;4.850;2024-02-26T11:37:54;6.37;99.99
76040;SHT30;64736;50.462;4.850;2024-02-26T11:40:24;6.20;99.99
76040;SHT30;64736;50.462;4.850;2024-02-26T11:42:51;6.33;99.99
76040;SHT30;64736;50.462;4.850;2024-02-26T11:48:20;6.45;97.85
76040;SHT30;64736;50.462;4.850;2024-02-26T11:50:50;6.40;97.89
76040;SHT30;64736;50.462;4.850;2024-02-26T11:53:29;6.37;98.30
76040;SHT30;64736;50.462;4.850;2024-02-26T11:59:09;6.40;97.83
76040;SHT30;64736;50.462;4.850;2024-02-26T12:01:48;6.45;97.29
76040;SHT30;64736;50.462;4.850;2024-02-26T12:04:17;6.51;97.16
76040;SHT30;64736;50.462;4.850;2024-02-26T12:06:45;6.49;98.19
76040;SHT30;64736;50.462;4.850;2024-02-26T12:09:11;6.38;97.04
76040;SHT30;64736;50.462;4.850;2024-02-26T12:11:39;6.48;97.21
76040;SHT30;64736;50.462;4.850;2024-02-26T12:14:09;6.41;99.71
76040;SHT30;64736;50.462;4.850;2024-02-26T12:16:39;6.42;98.60
76040;SHT30;64736;50.462;4.850;2024-02-26T12:19:09;6.36;98.35
76040;SHT30;64736;50.462;4.850;2024-02-26T12:21:36;6.37;98.41
76040;SHT30;64736;50.462;4.850;2024-02-26T12:24:13;6.27;98.40
76040;SHT30;64736;50.462;4.850;2024-02-26T12:26:41;6.26;97.33
76040;SHT30;64736;50.462;4.850;2024-02-26T12:29:07;6.34;94.89
76040;SHT30;64736;50.462;4.850;2024-02-26T12:31:33;6.38;95.13
76040;SHT30;64736;50.462;4.850;2024-02-26T12:34:00;6.40;95.23
76040;SHT30;64736;50.462;4.850;2024-02-26T12:36:26;6.33;96.86
76040;SHT30;64736;50.462;4.850;2024-02-26T12:38:52;6.28;95.35
76040;SHT30;64736;50.462;4.850;2024-02-26T12:41:18;6.28;96.23
76040;SHT30;64736;50.462;4.850;2024-02-26T12:43:44;6.30;95.79
76040;SHT30;64736;50.462;4.850;2024-02-26T12:46:10;6.26;96.90
76040;SHT30;64736;50.462;4.850;2024-02-26T12:48:36;6.26;95.47
76040;SHT30;64736;50.462;4.850;2024-02-26T12:51:02;6.33;95.92
76040;SHT30;64736;50.462;4.850;2024-02-26T12:53:27;6.34;96.18
76040;SHT30;64736;50.462;4.850;2024-02-26T12:55:54;6.27;96.39
76040;SHT30;64736;50.462;4.850;2024-02-26T12:58:22;6.28;96.15
76040;SHT30;64736;50.462;4.850;2024-02-26T13:00:54;6.36;96.46
76040;SHT30;64736;50.462;4.850;2024-02-26T13:03:21;6.31;96.78
76040;SHT30;64736;50.462;4.850;2024-02-26T13:05:48;6.31;97.71
76040;SHT30;64736;50.462;4.850;2024-02-26T13:08:21;6.41;97.79
76040;SHT30;64736;50.462;4.850;2024-02-26T13:10:47;6.38;98.03
76040;SHT30;64736;50.462;4.850;2024-02-26T13:13:15;6.31;99.04
76040;SHT30;64736;50.462;4.850;2024-02-26T13:15:43;6.41;99.76
76040;SHT30;64736;50.462;4.850;2024-02-26T13:18:13;6.42;99.31
76040;SHT30;64736;50.462;4.850;2024-02-26T13:20:40;6.16;99.80
76040;SHT30;64736;50.462;4.850;2024-02-26T13:23:11;6.14;99.99
76040;SHT30;64736;50.462;4.850;2024-02-26T13:25:37;6.20;99.22
76040;SHT30;64736;50.462;4.850;2024-02-26T13:28:15;6.20;95.75
76040;SHT30;64736;50.462;4.850;2024-02-26T13:30:42;6.30;95.39
76040;SHT30;64736;50.462;4.850;2024-02-26T13:33:11;6.34;95.05
76040;SHT30;64736;50.462;4.850;2024-02-26T13:35:38;6.42;95.27
76040;SHT30;64736;50.462;4.850;2024-02-26T13:38:05;6.41;95.60
76040;SHT30;64736;50.462;4.850;2024-02-26T13:40:31;6.42;95.66
76040;SHT30;64736;50.462;4.850;2024-02-26T13:42:57;6.37;96.18
76040;SHT30;64736;50.462;4.850;2024-02-26T13:45:22;6.28;95.43
76040;SHT30;64736;50.462;4.850;2024-02-26T13:47:48;6.28;95.38
76040;SHT30;64736;50.462;4.850;2024-02-26T13:50:14;6.40;95.74
76040;SHT30;64736;50.462;4.850;2024-02-26T13:52:39;6.37;95.58
76040;SHT30;64736;50.462;4.850;2024-02-26T13:55:05;6.31;95.73
76040;SHT30;64736;50.462;4.850;2024-02-26T13:57:32;6.37;96.05
76040;SHT30;64736;50.462;4.850;2024-02-26T13:59:58;6.31;96.20
76040;SHT30;64736;50.462;4.850;2024-02-26T14:02:24;6.11;98.26
76040;SHT30;64736;50.462;4.850;2024-02-26T14:04:49;5.96;99.20
76040;SHT30;64736;50.462;4.850;2024-02-26T14:07:15;6.05;98.78
76040;SHT30;64736;50.462;4.850;2024-02-26T14:09:42;6.03;99.99
76040;SHT30;64736;50.462;4.850;2024-02-26T14:12:08;6.02;99.99
76040;SHT30;64736;50.462;4.850;2024-02-26T14:14:34;5.90;99.99
76040;SHT30;64736;50.462;4.850;2024-02-26T14:17:03;5.86;99.99
76040;SHT30;64736;50.462;4.850;2024-02-26T14:19:29;5.85;99.99
76040;SHT30;64736;50.462;4.850;2024-02-26T14:21:55;5.76;99.99
76040;SHT30;64736;50.462;4.850;2024-02-26T14:24:20;5.76;99.68
76040;SHT30;64736;50.462;4.850;2024-02-26T14:26:46;5.75;98.39
76040;SHT30;64736;50.462;4.850;2024-02-26T14:29:11;5.76;96.89
76040;SHT30;64736;50.462;4.850;2024-02-26T14:31:37;5.79;96.65
76040;SHT30;64736;50.462;4.850;2024-02-26T14:34:02;5.78;96.69
76040;SHT30;64736;50.462;4.850;2024-02-26T14:36:28;5.78;96.07
76040;SHT30;64736;50.462;4.850;2024-02-26T14:38:54;5.82;98.12
76040;SHT30;64736;50.462;4.850;2024-02-26T14:41:20;5.78;96.19
76040;SHT30;64736;50.462;4.850;2024-02-26T14:43:45;5.78;96.52
76040;SHT30;64736;50.462;4.850;2024-02-26T14:46:11;5.78;96.48
76040;SHT30;64736;50.462;4.850;2024-02-26T14:48:37;5.75;96.74
76040;SHT30;64736;50.462;4.850;2024-02-26T14:51:03;5.79;97.53
76040;SHT30;64736;50.462;4.850;2024-02-26T14:53:31;5.71;96.98
76040;SHT30;64736;50.462;4.850;2024-02-26T14:55:57;5.68;97.14
76040;SHT30;64736;50.462;4.850;2024-02-26T14:58:23;5.63;97.74
76040;SHT30;64736;50.462;4.850;2024-02-26T15:00:48;5.69;97.76
76040;SHT30;64736;50.462;4.850;2024-02-26T15:03:14;5.63;97.78
76040;SHT30;64736;50.462;4.850;2024-02-26T15:05:40;5.65;97.73
76040;SHT30;64736;50.462;4.850;2024-02-26T15:08:06;5.66;97.75
76040;SHT30;64736;50.462;4.850;2024-02-26T15:10:34;5.68;97.64
76040;SHT30;64736;50.462;4.850;2024-02-26T15:12:59;5.75;97.72
76040;SHT30;64736;50.462;4.850;2024-02-26T15:15:25;5.65;97.62
76040;SHT30;64736;50.462;4.850;2024-02-26T15:17:51;5.73;95.51
76040;SHT30;64736;50.462;4.850;2024-02-26T15:20:17;5.73;94.16
76040;SHT30;64736;50.462;4.850;2024-02-26T15:22:42;5.66;94.67
76040;SHT30;64736;50.462;4.850;2024-02-26T15:25:08;5.66;95.10
76040;SHT30;64736;50.462;4.850;2024-02-26T15:27:34;5.69;95.23
76040;SHT30;64736;50.462;4.850;2024-02-26T15:30:01;5.61;95.64
76040;SHT30;64736;50.462;4.850;2024-02-26T15:32:27;5.59;96.48
76040;SHT30;64736;50.462;4.850;2024-02-26T15:34:56;5.55;97.18
76040;SHT30;64736;50.462;4.850;2024-02-26T15:37:22;5.55;97.28
76040;SHT30;64736;50.462;4.850;2024-02-26T15:39:47;5.55;97.60
76040;SHT30;64736;50.462;4.850;2024-02-26T15:42:13;5.55;97.63
76040;SHT30;64736;50.462;4.850;2024-02-26T15:44:40;5.61;97.62
76040;SHT30;64736;50.462;4.850;2024-02-26T15:47:06;5.54;97.58